ETMN

Details ICAO ETMN
Name Nordholz
Region Germany - Military
Timezone Europe/Berlin (UTC+1.0)
Plans Departing 8
Arriving 9
Stats Elevation 74 ft / 23 m (AMSL)
Location 53.767665° 8.658501°
Runways 1
Magnetic Variation 2.359° E
Sunrise 2017-12-17 07:39:48 UTC / 2017-12-17 08:39:48 Local
Sunset 2017-12-17 15:05:53 UTC / 2017-12-17 16:05:53 Local
Advertisement - Login to hide

Runways

ID Width Length Bearing (true) Bearing (mag) Surface Threshold Offset Overrun Length
08 148 ft / 45 m 7,979 ft / 2,432 m 78.29° 75.93° Concrete 0 ft / 0 m 902 ft / 275 m
26 148 ft / 45 m 7,979 ft / 2,432 m 258.32° 255.96° Concrete 0 ft / 0 m 902 ft / 275 m

Approach Navaids

Runway Type Ident Frequency Range Bearing (true) Bearing (mag) Slope Elevation
26 Localiser NDO 111.90 MHz 18 nm / 33 km 258.37° 256.01° - 66 ft / 20 m (AMSL)
26 Glidescope NDO 111.90 MHz 10 nm / 19 km 258.30° 255.94° 3.00° 74 ft / 23 m (AMSL)

Map

Weather


0- 5 10 15 20 25 30 35+ Temperature / ° C

Clouds and Precipitation
Forecast for 2017-12-17 06:00 UTC. Updated an hour ago

Ground ~20,000 ft ~40,000 ft Winds

METAR

ETMN 170520Z 33004KT 9999 M00/M02 Q1017 BLU+

TAF

Not found

Frequencies

Tower 125.10 MHz BREMEN INFO
Tower 131.25 MHz TWR
Approach 129.85 MHz RADAR
Tower 122.10 MHz TWR
Approach 123.30 MHz RADAR
Warning: Do not use this data for real-world aviation or navigation. No guarantee of current accuracy is given.